Time;durP1;ratioP1;P1;durP2;ratioP2;P2;SDS_P1;SDS_P2;PMS_P1;PMS_P2;Temp;Humidity;BMP_temperature;BMP_pressure;BME280_temperature;BME280_humidity;BME280_pressure;Samples;Min_cycle;Max_cycle;Signal;HPM_P1;HPM_P2
2022/01/16 00:04:09;;;;;;;167.02;63.42;;;2.00;99.90;;;;;;5017382;28;20041;-75
2022/01/16 00:06:43;;;;;;;183.67;61.53;;;1.90;99.90;;;;;;5007514;28;20175;-75
2022/01/16 00:09:14;;;;;;;188.80;66.50;;;1.90;99.90;;;;;;5011522;28;20399;-74
2022/01/16 00:11:39;;;;;;;;;;;1.90;99.90;;;;;;5029865;28;20045;-75
2022/01/16 00:14:06;;;;;;;160.53;60.93;;;1.90;99.90;;;;;;5022437;28;19930;-75
2022/01/16 00:16:32;;;;;;;160.90;60.80;;;1.80;99.90;;;;;;5012892;28;20040;-75
2022/01/16 00:18:58;;;;;;;163.93;63.90;;;1.90;99.90;;;;;;5013083;28;20094;-76
2022/01/16 00:21:33;;;;;;;152.37;60.67;;;1.80;99.90;;;;;;5014831;28;20049;-75
2022/01/16 00:23:59;;;;;;;145.50;59.07;;;1.80;99.90;;;;;;5009120;28;20084;-75
2022/01/16 00:26:25;;;;;;;132.30;57.10;;;1.80;99.90;;;;;;5023500;28;20058;-75
2022/01/16 00:28:52;;;;;;;159.13;64.03;;;1.80;99.90;;;;;;5004113;28;20041;-76
2022/01/16 00:31:19;;;;;;;151.27;61.30;;;1.70;99.90;;;;;;5008763;28;20054;-76
2022/01/16 00:33:45;;;;;;;147.17;59.53;;;1.70;99.90;;;;;;5014324;28;20060;-76
2022/01/16 00:36:17;;;;;;;164.73;62.90;;;1.70;99.90;;;;;;5011725;28;20044;-74
2022/01/16 00:38:44;;;;;;;130.07;55.73;;;1.70;99.90;;;;;;5026101;28;20535;-74
2022/01/16 00:41:11;;;;;;;134.70;57.33;;;1.70;99.90;;;;;;5009496;28;20066;-75
2022/01/16 00:43:37;;;;;;;138.00;58.17;;;1.70;99.90;;;;;;4997879;28;20368;-75
2022/01/16 00:46:03;;;;;;;126.33;54.20;;;1.50;99.90;;;;;;4987516;28;20045;-75
2022/01/16 00:48:29;;;;;;;137.60;56.87;;;1.60;99.90;;;;;;5005827;28;20051;-75
2022/01/16 00:50:57;;;;;;;131.27;56.73;;;1.70;99.90;;;;;;5007410;28;20424;-75
2022/01/16 00:53:23;;;;;;;114.23;55.87;;;1.60;99.90;;;;;;5024685;28;20045;-75
2022/01/16 00:55:49;;;;;;;121.27;54.87;;;1.50;99.90;;;;;;5024045;28;20040;-75
2022/01/16 00:58:15;;;;;;;134.23;56.87;;;1.60;99.90;;;;;;4990682;28;20239;-75
2022/01/16 01:00:40;;;;;;;140.33;57.00;;;1.60;99.90;;;;;;4992046;28;20644;-75
2022/01/16 01:03:07;;;;;;;153.57;61.83;;;1.60;99.90;;;;;;4993435;28;20374;-75
2022/01/16 01:05:34;;;;;;;143.33;58.37;;;1.60;99.90;;;;;;5042850;28;20045;-75
2022/01/16 01:08:00;;;;;;;140.10;58.73;;;1.60;99.90;;;;;;5026292;28;20124;-75
2022/01/16 01:10:39;;;;;;;146.13;61.03;;;1.60;99.90;;;;;;4992221;28;20059;-75
2022/01/16 01:13:22;;;;;;;157.20;62.27;;;1.60;99.90;;;;;;5023862;28;20056;-75
2022/01/16 01:15:52;;;;;;;168.97;64.37;;;1.60;99.90;;;;;;5020885;28;20056;-75
2022/01/16 01:18:20;;;;;;;157.70;65.65;;;1.60;99.90;;;;;;5023644;28;20045;-75
2022/01/16 01:20:49;;;;;;;160.17;64.67;;;1.60;99.90;;;;;;4993251;28;20180;-75
2022/01/16 01:23:15;;;;;;;158.57;66.60;;;1.50;99.90;;;;;;4995846;28;20060;-75
2022/01/16 01:25:42;;;;;;;151.00;64.17;;;1.60;99.90;;;;;;5018293;28;20587;-75
2022/01/16 01:28:09;;;;;;;150.17;67.33;;;1.70;99.90;;;;;;5002871;28;20065;-75
2022/01/16 01:30:35;;;;;;;156.00;68.63;;;1.60;99.90;;;;;;5005022;28;20516;-76
2022/01/16 01:33:01;;;;;;;166.63;71.50;;;1.60;99.90;;;;;;5004281;28;20095;-75
2022/01/16 01:35:28;;;;;;;149.10;66.20;;;1.70;99.90;;;;;;5003936;28;20038;-75
2022/01/16 01:37:57;;;;;;;164.97;70.37;;;1.70;99.90;;;;;;5006142;28;20081;-75
2022/01/16 01:40:26;;;;;;;171.37;70.83;;;1.70;99.90;;;;;;5006283;28;20077;-75
2022/01/16 01:51:16;;;;;;;213.10;80.00;;;1.70;99.90;;;;;;5009806;28;20084;-75
2022/01/16 01:53:43;;;;;;;230.47;83.00;;;1.70;99.90;;;;;;4991816;28;20056;-75
2022/01/16 01:56:12;;;;;;;232.97;85.23;;;1.80;99.90;;;;;;4992107;28;20034;-75
2022/01/16 01:58:38;;;;;;;233.40;83.93;;;1.80;99.90;;;;;;5007654;28;20266;-76
2022/01/16 02:01:05;;;;;;;242.87;84.90;;;1.80;99.90;;;;;;4992466;28;20042;-76
2022/01/16 02:05:57;;;;;;;234.70;83.60;;;1.80;99.90;;;;;;5003336;28;20060;-76
2022/01/16 02:08:23;;;;;;;234.20;85.73;;;1.80;99.90;;;;;;5004025;28;20041;-76
2022/01/16 02:10:49;;;;;;;196.60;78.47;;;1.80;99.90;;;;;;5001791;28;20072;-76
2022/01/16 02:13:26;;;;;;;233.50;84.77;;;1.80;99.90;;;;;;4970552;28;20080;-76
2022/01/16 02:34:41;;;;;;;256.20;89.83;;;1.80;99.90;;;;;;5007714;28;20133;-75
2022/01/16 02:37:09;;;;;;;206.47;83.87;;;1.80;99.90;;;;;;5024339;28;20091;-75
2022/01/16 02:39:37;;;;;;;211.57;81.60;;;1.80;99.90;;;;;;4991507;28;20350;-74
2022/01/16 02:42:05;;;;;;;228.93;84.37;;;1.80;99.90;;;;;;4995889;28;20480;-75
2022/01/16 02:44:35;;;;;;;246.37;85.57;;;1.90;99.90;;;;;;4998002;28;20373;-74
2022/01/16 02:47:02;;;;;;;270.38;89.45;;;1.90;99.90;;;;;;5013706;28;20076;-75
2022/01/16 02:49:33;;;;;;;250.07;86.07;;;1.90;99.90;;;;;;4997344;28;20049;-74
2022/01/16 02:52:01;;;;;;;256.40;87.03;;;1.90;99.90;;;;;;4997040;28;20048;-74
2022/01/16 02:54:28;;;;;;;241.73;85.37;;;1.90;99.90;;;;;;5009006;28;20459;-75
2022/01/16 02:56:57;;;;;;;252.60;85.40;;;1.90;99.90;;;;;;5012024;28;20045;-75
2022/01/16 02:59:23;;;;;;;276.50;86.40;;;1.90;99.90;;;;;;5012484;28;20565;-75
2022/01/16 03:01:50;;;;;;;227.13;81.47;;;1.90;99.90;;;;;;4993108;28;20041;-74
2022/01/16 03:04:17;;;;;;;254.30;88.13;;;2.00;99.90;;;;;;5012995;28;20057;-75
2022/01/16 03:06:43;;;;;;;257.23;87.90;;;1.90;99.90;;;;;;4997392;28;20060;-75
2022/01/16 03:09:10;;;;;;;263.07;81.97;;;2.00;99.90;;;;;;5012608;28;20045;-74
2022/01/16 03:11:48;;;;;;;283.57;89.37;;;2.10;99.90;;;;;;4981198;28;20041;-74
2022/01/16 03:14:16;;;;;;;317.43;91.77;;;2.00;99.90;;;;;;5009294;28;20041;-75
2022/01/16 03:16:46;;;;;;;358.67;97.37;;;2.00;99.90;;;;;;4996457;28;20111;-75
2022/01/16 03:22:03;;;;;;;338.73;94.83;;;2.10;99.90;;;;;;5012801;28;20057;-75
2022/01/16 03:24:55;;;;;;;366.80;96.40;;;2.10;99.90;;;;;;5013389;28;20049;-75
2022/01/16 03:27:21;;;;;;;434.27;101.57;;;2.10;99.90;;;;;;5012507;28;20045;-75
2022/01/16 03:29:49;;;;;;;396.07;99.53;;;2.10;99.90;;;;;;5014301;28;20400;-75
2022/01/16 03:32:18;;;;;;;296.97;89.13;;;2.10;99.90;;;;;;5048501;28;20052;-75
2022/01/16 03:34:45;;;;;;;361.33;96.47;;;2.10;99.90;;;;;;5048258;28;20154;-75
2022/01/16 03:37:11;;;;;;;355.57;96.47;;;2.10;99.90;;;;;;5015137;28;20040;-75
2022/01/16 03:39:40;;;;;;;308.73;90.60;;;2.10;99.90;;;;;;5031970;28;20074;-75
2022/01/16 03:42:06;;;;;;;287.87;87.97;;;2.10;99.90;;;;;;5014682;28;20033;-75
2022/01/16 03:44:32;;;;;;;317.40;94.60;;;2.20;99.90;;;;;;5048238;28;20107;-75
2022/01/16 03:46:58;;;;;;;271.80;87.33;;;2.20;99.90;;;;;;5047815;28;20098;-74
2022/01/16 03:49:27;;;;;;;314.60;92.73;;;2.20;99.90;;;;;;5016148;28;20045;-75
2022/01/16 03:51:57;;;;;;;290.00;85.93;;;2.20;99.90;;;;;;5047532;28;20566;-75
2022/01/16 03:54:31;;;;;;;258.20;82.30;;;2.20;99.90;;;;;;5009646;28;20073;-74
2022/01/16 03:56:58;;;;;;;290.73;88.53;;;2.40;99.90;;;;;;5028057;28;20349;-75
2022/01/16 03:59:24;;;;;;;324.10;90.33;;;2.20;99.90;;;;;;5029080;28;20040;-75
2022/01/16 04:01:50;;;;;;;295.60;86.80;;;2.20;99.90;;;;;;5031103;28;20098;-74
2022/01/16 04:04:16;;;;;;;282.40;87.20;;;2.30;99.90;;;;;;5031230;28;20044;-75
2022/01/16 04:06:42;;;;;;;294.23;85.87;;;2.30;99.90;;;;;;5030795;28;20041;-75
2022/01/16 04:09:08;;;;;;;322.07;86.97;;;2.30;99.90;;;;;;5029531;28;20579;-75
2022/01/16 04:11:35;;;;;;;320.47;87.70;;;2.40;99.90;;;;;;5030650;28;20053;-75
2022/01/16 04:14:14;;;;;;;313.80;87.20;;;2.30;99.90;;;;;;5030336;28;20257;-75
2022/01/16 04:16:40;;;;;;;280.50;84.40;;;2.40;99.90;;;;;;5014742;28;20123;-75
2022/01/16 04:19:06;;;;;;;297.37;84.77;;;2.40;99.90;;;;;;5030817;28;20045;-75
2022/01/16 04:21:33;;;;;;;274.93;84.77;;;2.50;99.90;;;;;;5047565;28;20084;-75
2022/01/16 04:23:59;;;;;;;306.87;85.90;;;2.40;99.90;;;;;;5006389;28;20039;-74
2022/01/16 04:26:27;;;;;;;299.40;87.37;;;2.40;99.90;;;;;;5030638;28;20091;-75
2022/01/16 04:28:57;;;;;;;321.63;89.90;;;2.40;99.90;;;;;;5012802;28;20098;-74
2022/01/16 04:31:23;;;;;;;315.95;86.80;;;2.50;99.90;;;;;;5014599;28;20049;-75
2022/01/16 04:33:49;;;;;;;330.03;87.67;;;2.50;99.90;;;;;;5031192;28;20523;-75
2022/01/16 04:36:15;;;;;;;310.30;86.70;;;2.50;99.90;;;;;;5013375;28;20037;-75
2022/01/16 04:38:48;;;;;;;315.23;91.27;;;2.50;99.90;;;;;;5030469;28;20052;-75
2022/01/16 04:44:00;;;;;;;285.73;87.60;;;2.50;99.90;;;;;;5030034;28;20049;-75
2022/01/16 04:46:28;;;;;;;271.50;84.90;;;2.60;99.90;;;;;;5029604;28;20575;-75
2022/01/16 04:48:55;;;;;;;277.90;83.27;;;2.50;99.90;;;;;;5046583;28;20045;-75
2022/01/16 04:51:22;;;;;;;323.80;90.23;;;2.60;99.90;;;;;;5031725;28;20132;-75
2022/01/16 04:53:48;;;;;;;311.97;92.63;;;2.60;99.90;;;;;;5028588;28;20118;-75
2022/01/16 04:56:15;;;;;;;284.50;87.33;;;2.60;99.90;;;;;;5029251;28;20049;-75
2022/01/16 04:58:41;;;;;;;301.27;90.23;;;2.60;99.90;;;;;;5027371;28;20045;-75
2022/01/16 05:01:08;;;;;;;328.67;91.47;;;2.70;99.90;;;;;;5031600;28;20040;-75
2022/01/16 05:03:35;;;;;;;330.63;92.07;;;2.70;99.90;;;;;;5026148;28;20119;-75
2022/01/16 05:06:02;;;;;;;285.13;88.37;;;2.70;99.90;;;;;;5030350;28;20132;-74
2022/01/16 05:08:28;;;;;;;283.17;87.23;;;2.70;99.90;;;;;;5031396;28;20127;-75
2022/01/16 05:10:57;;;;;;;285.17;90.03;;;2.70;99.90;;;;;;5027473;28;20182;-75
2022/01/16 05:13:31;;;;;;;299.67;92.53;;;2.80;99.90;;;;;;5012465;28;20089;-75
2022/01/16 05:18:43;;;;;;;291.03;92.00;;;2.80;99.90;;;;;;5011974;28;20057;-75
2022/01/16 05:21:10;;;;;;;274.10;86.40;;;2.80;99.90;;;;;;5012670;28;20405;-75
2022/01/16 05:23:36;;;;;;;249.27;84.80;;;2.80;99.90;;;;;;5026973;28;20052;-74
2022/01/16 05:26:03;;;;;;;280.77;88.20;;;2.90;99.90;;;;;;5047111;28;20064;-75
2022/01/16 05:28:30;;;;;;;279.17;87.53;;;2.90;99.90;;;;;;5013249;28;20046;-75
2022/01/16 05:30:56;;;;;;;287.00;89.10;;;2.90;99.90;;;;;;4991122;28;20074;-75
2022/01/16 05:33:22;;;;;;;252.60;83.17;;;2.90;99.90;;;;;;4991715;28;20758;-74
2022/01/16 05:35:48;;;;;;;261.87;84.07;;;2.90;99.90;;;;;;4991492;28;20121;-75
2022/01/16 05:38:14;;;;;;;256.27;86.03;;;3.00;99.90;;;;;;4991368;28;20284;-75
2022/01/16 05:40:40;;;;;;;262.33;86.37;;;3.00;99.90;;;;;;4959794;28;20050;-74
2022/01/16 05:43:07;;;;;;;260.03;84.13;;;3.00;99.90;;;;;;4991081;28;20049;-75
2022/01/16 05:45:32;;;;;;;252.73;87.00;;;3.00;99.90;;;;;;4991962;28;20045;-75
2022/01/16 05:47:58;;;;;;;249.73;85.20;;;3.00;99.90;;;;;;4975587;28;20034;-74
2022/01/16 05:50:25;;;;;;;256.80;85.73;;;3.00;99.90;;;;;;4998380;28;20050;-74
2022/01/16 05:52:52;;;;;;;245.80;84.40;;;3.00;99.90;;;;;;5005164;28;20045;-74
2022/01/16 05:55:18;;;;;;;260.17;88.30;;;3.10;99.90;;;;;;5011043;28;20045;-75
2022/01/16 05:57:45;;;;;;;272.03;87.03;;;3.10;99.90;;;;;;5010046;28;20148;-75
2022/01/16 06:00:13;;;;;;;223.13;81.40;;;3.10;99.90;;;;;;4992898;28;20037;-75
2022/01/16 06:02:40;;;;;;;236.13;81.87;;;3.10;99.90;;;;;;5011775;28;20499;-75
2022/01/16 06:05:07;;;;;;;258.37;85.83;;;3.10;99.90;;;;;;5031132;28;20048;-76
2022/01/16 06:07:33;;;;;;;249.77;83.03;;;3.10;99.90;;;;;;5047921;28;20410;-75
2022/01/16 06:09:59;;;;;;;241.83;81.03;;;3.20;99.90;;;;;;5020095;28;20049;-74
2022/01/16 06:12:25;;;;;;;254.03;82.33;;;3.20;99.90;;;;;;4994556;28;20456;-75
2022/01/16 06:14:51;;;;;;;256.17;82.40;;;3.20;99.90;;;;;;5013238;28;20055;-74
2022/01/16 06:17:17;;;;;;;247.80;83.20;;;3.20;99.90;;;;;;5013955;28;20428;-75
2022/01/16 06:19:43;;;;;;;247.93;80.77;;;3.20;99.90;;;;;;5014591;28;20041;-75
2022/01/16 06:22:08;;;;;;;262.23;82.80;;;3.30;99.90;;;;;;5006516;28;20048;-75
2022/01/16 06:24:34;;;;;;;262.90;82.63;;;3.20;99.90;;;;;;5033931;28;20063;-75
2022/01/16 06:27:00;;;;;;;263.43;85.53;;;3.20;99.90;;;;;;5017535;28;20123;-75
2022/01/16 06:29:26;;;;;;;246.23;82.73;;;3.30;99.90;;;;;;5032171;28;20099;-75
2022/01/16 06:31:52;;;;;;;262.07;83.90;;;3.30;99.90;;;;;;5034555;28;20071;-75
2022/01/16 06:34:18;;;;;;;269.00;87.03;;;3.30;99.90;;;;;;5017339;28;20495;-75
2022/01/16 06:36:44;;;;;;;266.27;87.93;;;3.30;99.90;;;;;;5018129;28;20506;-74
2022/01/16 06:39:12;;;;;;;254.37;82.30;;;3.30;99.90;;;;;;5032981;28;20100;-75
2022/01/16 06:41:39;;;;;;;260.83;84.17;;;3.30;99.90;;;;;;5034185;28;20543;-75
2022/01/16 06:44:06;;;;;;;263.60;87.73;;;3.40;99.90;;;;;;5001025;28;20487;-75
2022/01/16 06:46:32;;;;;;;239.67;83.13;;;3.30;99.90;;;;;;5033998;28;20581;-75
2022/01/16 06:48:58;;;;;;;242.20;81.67;;;3.40;99.90;;;;;;5017786;28;20064;-75
2022/01/16 06:51:25;;;;;;;253.43;83.30;;;3.40;99.90;;;;;;5035609;28;20049;-75
2022/01/16 06:53:57;;;;;;;242.03;82.13;;;3.40;99.90;;;;;;5035432;28;20068;-74
2022/01/16 06:56:25;;;;;;;254.17;82.70;;;3.40;99.90;;;;;;5033805;28;20463;-75
2022/01/16 06:58:51;;;;;;;260.93;84.40;;;3.40;99.90;;;;;;5013619;28;20068;-75
2022/01/16 07:01:17;;;;;;;264.33;84.87;;;3.50;99.90;;;;;;4997309;28;20508;-75
2022/01/16 07:03:43;;;;;;;240.67;80.93;;;3.50;99.90;;;;;;5007801;28;20186;-75
2022/01/16 07:06:09;;;;;;;251.17;82.10;;;3.60;99.90;;;;;;5049888;28;20451;-73
2022/01/16 07:08:35;;;;;;;242.50;84.80;;;3.50;99.90;;;;;;5048999;28;20111;-74
2022/01/16 07:11:02;;;;;;;241.53;85.80;;;3.60;99.90;;;;;;5032344;28;20037;-74
2022/01/16 07:13:29;;;;;;;248.40;84.97;;;3.60;99.90;;;;;;5017104;28;20060;-75
2022/01/16 07:15:55;;;;;;;271.30;88.97;;;3.60;99.90;;;;;;5033596;28;20044;-75
2022/01/16 07:18:22;;;;;;;260.17;84.07;;;3.50;99.90;;;;;;5016613;28;20041;-75
2022/01/16 07:20:48;;;;;;;238.60;81.00;;;3.60;99.90;;;;;;5016886;28;20504;-76
2022/01/16 07:23:15;;;;;;;261.40;88.17;;;3.70;99.90;;;;;;5014797;28;20064;-76
2022/01/16 07:25:42;;;;;;;258.13;86.30;;;3.70;99.90;;;;;;5048012;28;20116;-75
2022/01/16 07:28:08;;;;;;;249.27;84.27;;;3.70;99.90;;;;;;5015492;28;20510;-75
2022/01/16 07:30:36;;;;;;;262.53;84.37;;;3.70;99.90;;;;;;5016486;28;20052;-75
2022/01/16 07:33:03;;;;;;;238.53;84.53;;;3.80;99.90;;;;;;5016492;28;20049;-75
2022/01/16 07:35:29;;;;;;;240.10;83.40;;;3.80;99.90;;;;;;5015240;28;20052;-74
2022/01/16 07:37:55;;;;;;;240.97;82.27;;;3.80;99.90;;;;;;5016792;28;20545;-75
2022/01/16 07:40:21;;;;;;;240.50;84.57;;;3.80;99.90;;;;;;5015848;28;20041;-75
2022/01/16 07:42:47;;;;;;;231.90;83.00;;;3.90;99.90;;;;;;5032923;28;20053;-76
2022/01/16 07:45:13;;;;;;;223.87;82.47;;;3.90;99.90;;;;;;5032022;28;20040;-75
2022/01/16 07:47:39;;;;;;;229.93;85.70;;;3.90;99.90;;;;;;5032982;28;20045;-75
2022/01/16 07:50:10;;;;;;;217.67;85.03;;;4.00;99.90;;;;;;5039947;28;20033;-75
2022/01/16 07:52:35;;;;;;;;;;;4.10;99.90;;;;;;5044521;28;20087;-75
2022/01/16 07:55:01;;;;;;;219.37;82.87;;;4.10;99.90;;;;;;5014913;28;20341;-76
2022/01/16 07:57:27;;;;;;;214.43;83.97;;;4.10;99.90;;;;;;5031606;28;20052;-74
2022/01/16 07:59:53;;;;;;;198.23;78.87;;;4.20;99.90;;;;;;5011778;28;20354;-76
2022/01/16 08:02:19;;;;;;;206.00;81.10;;;4.20;99.90;;;;;;5029506;28;20048;-75
2022/01/16 08:04:45;;;;;;;200.53;78.37;;;4.30;99.90;;;;;;5021742;28;20182;-75
2022/01/16 08:07:11;;;;;;;200.23;79.57;;;4.30;99.90;;;;;;4991996;28;20458;-75
2022/01/16 08:09:40;;;;;;;197.87;81.50;;;4.40;99.90;;;;;;5001032;28;20091;-75
2022/01/16 08:12:07;;;;;;;195.57;77.47;;;4.40;99.90;;;;;;4990934;28;20545;-75
2022/01/16 08:14:34;;;;;;;192.90;78.97;;;4.40;99.90;;;;;;5028862;28;20094;-75
2022/01/16 08:17:00;;;;;;;201.23;78.00;;;4.40;99.90;;;;;;5011251;28;20043;-75
2022/01/16 08:19:27;;;;;;;186.93;75.80;;;4.50;99.90;;;;;;4996061;28;20548;-75
2022/01/16 08:21:54;;;;;;;189.90;76.27;;;4.50;99.90;;;;;;5029412;28;20048;-75
2022/01/16 08:24:21;;;;;;;192.00;76.50;;;4.50;99.90;;;;;;5021632;28;20037;-75
2022/01/16 08:26:47;;;;;;;178.37;73.67;;;4.60;99.90;;;;;;5026849;28;20505;-76
2022/01/16 08:29:13;;;;;;;179.73;75.17;;;4.60;99.90;;;;;;5010943;28;20045;-75
2022/01/16 08:31:39;;;;;;;185.27;74.63;;;4.60;99.90;;;;;;5007604;28;20045;-75
2022/01/16 08:34:05;;;;;;;178.80;72.87;;;4.60;99.90;;;;;;5023466;28;20033;-75
2022/01/16 08:36:31;;;;;;;176.77;74.03;;;4.60;99.90;;;;;;5025064;28;20041;-75
2022/01/16 08:38:57;;;;;;;192.43;74.97;;;4.70;99.90;;;;;;5027098;28;20098;-75
2022/01/16 08:41:23;;;;;;;178.03;76.43;;;4.60;99.90;;;;;;5022814;28;20029;-76
2022/01/16 08:43:49;;;;;;;162.67;70.60;;;4.70;99.90;;;;;;5020464;28;20090;-75
2022/01/16 08:46:15;;;;;;;164.20;71.63;;;4.70;99.90;;;;;;5007332;28;20045;-75
2022/01/16 08:48:42;;;;;;;167.87;73.23;;;4.70;99.90;;;;;;4998357;28;20164;-75
2022/01/16 08:51:08;;;;;;;171.43;74.33;;;4.70;99.90;;;;;;4993179;28;20051;-75
2022/01/16 08:53:36;;;;;;;168.70;73.73;;;4.70;99.90;;;;;;4995149;28;20207;-75
2022/01/16 08:56:02;;;;;;;152.37;69.70;;;4.80;99.90;;;;;;5012586;28;20037;-75
2022/01/16 08:58:28;;;;;;;152.43;66.97;;;4.80;99.90;;;;;;5012672;28;20127;-75
2022/01/16 09:00:54;;;;;;;143.97;66.50;;;4.80;99.90;;;;;;4992939;28;20136;-76
2022/01/16 09:03:22;;;;;;;147.57;68.40;;;4.80;99.90;;;;;;5021363;28;20060;-75
2022/01/16 09:05:49;;;;;;;137.93;66.30;;;4.90;99.90;;;;;;5019198;28;20052;-75
2022/01/16 09:08:16;;;;;;;129.10;66.93;;;4.90;99.90;;;;;;5002700;28;20570;-75
2022/01/16 09:10:43;;;;;;;136.13;69.53;;;4.90;99.90;;;;;;5007979;28;20053;-75
2022/01/16 09:13:15;;;;;;;127.80;63.23;;;5.00;99.90;;;;;;5008824;28;20040;-76
2022/01/16 09:15:43;;;;;;;134.60;68.30;;;5.10;99.90;;;;;;4984164;28;20118;-75
2022/01/16 09:18:09;;;;;;;128.83;62.47;;;5.20;99.90;;;;;;5022411;28;20045;-76
2022/01/16 09:20:38;;;;;;;124.57;63.60;;;5.20;99.90;;;;;;4995929;28;20775;-76
2022/01/16 09:23:04;;;;;;;121.27;63.03;;;5.30;99.90;;;;;;5009409;28;20415;-75
2022/01/16 09:25:30;;;;;;;115.27;61.03;;;5.20;99.90;;;;;;5039110;28;20060;-75
2022/01/16 09:27:56;;;;;;;112.93;61.27;;;5.30;99.90;;;;;;5026244;28;20041;-75
2022/01/16 09:30:31;;;;;;;111.00;60.73;;;5.40;99.90;;;;;;5010785;28;20041;-75
2022/01/16 09:32:57;;;;;;;118.90;63.07;;;5.40;99.90;;;;;;5021017;28;20041;-75
2022/01/16 09:35:23;;;;;;;108.23;60.93;;;5.40;99.90;;;;;;4995699;28;20450;-76
2022/01/16 09:37:51;;;;;;;112.77;61.40;;;5.40;99.90;;;;;;5025553;28;20053;-76
2022/01/16 09:40:19;;;;;;;109.27;59.20;;;5.40;99.90;;;;;;5008853;28;20412;-76
2022/01/16 09:42:47;;;;;;;105.97;58.03;;;5.50;99.90;;;;;;5006531;28;20049;-76
2022/01/16 09:45:15;;;;;;;104.63;57.80;;;5.50;99.90;;;;;;5007290;28;20041;-75
2022/01/16 09:47:43;;;;;;;104.57;57.07;;;5.50;99.90;;;;;;5030425;28;20092;-75
2022/01/16 09:50:10;;;;;;;100.13;56.63;;;5.60;99.90;;;;;;5012225;28;20051;-76
2022/01/16 09:52:39;;;;;;;91.20;55.83;;;5.60;99.90;;;;;;5025712;28;20094;-75
2022/01/16 09:55:06;;;;;;;101.80;56.33;;;5.70;99.90;;;;;;5026295;28;20044;-75
2022/01/16 09:57:34;;;;;;;99.20;57.60;;;5.70;99.90;;;;;;4993403;28;20041;-76
2022/01/16 10:00:01;;;;;;;100.23;57.90;;;5.70;99.90;;;;;;5029084;28;20546;-75
2022/01/16 10:02:27;;;;;;;98.40;53.17;;;5.70;99.90;;;;;;5020143;28;20077;-76
2022/01/16 10:04:53;;;;;;;92.97;55.93;;;5.70;99.90;;;;;;4983166;28;20085;-76
2022/01/16 10:07:19;;;;;;;88.20;52.90;;;5.70;99.90;;;;;;5022017;28;20041;-75
2022/01/16 10:10:05;;;;;;;89.90;53.53;;;5.80;99.90;;;;;;5029490;28;20049;-76
2022/01/16 10:12:33;;;;;;;90.63;52.17;;;5.80;99.90;;;;;;5020461;28;20057;-75
2022/01/16 10:15:18;;;;;;;85.10;53.30;;;5.80;99.90;;;;;;5033586;28;20063;-75
2022/01/16 10:17:50;;;;;;;83.37;50.40;;;5.80;99.90;;;;;;5014011;28;20053;-76
2022/01/16 10:20:19;;;;;;;81.10;49.00;;;5.80;99.90;;;;;;5017238;28;20439;-75
2022/01/16 10:22:53;;;;;;;80.27;49.20;;;5.80;99.90;;;;;;5030062;28;20053;-76
2022/01/16 10:25:41;;;;;;;85.53;51.43;;;5.90;99.90;;;;;;5010339;28;20516;-75
2022/01/16 10:28:22;;;;;;;83.67;52.83;;;5.90;99.90;;;;;;5004208;28;20377;-75
2022/01/16 10:30:52;;;;;;;;;;;5.90;99.90;;;;;;5004201;28;20049;-76
2022/01/16 10:33:28;;;;;;;81.93;50.75;;;5.80;99.90;;;;;;5006671;28;20346;-75
2022/01/16 10:35:55;;;;;;;83.20;50.30;;;5.80;99.90;;;;;;5019229;28;20034;-75
2022/01/16 10:38:24;;;;;;;82.20;50.73;;;5.80;99.90;;;;;;5019110;28;20569;-76
2022/01/16 10:40:53;;;;;;;82.23;49.87;;;5.80;99.90;;;;;;5007057;28;20037;-75
2022/01/16 10:43:41;;;;;;;76.17;47.00;;;5.80;99.90;;;;;;5004936;28;20038;-76
2022/01/16 10:46:08;;;;;;;77.33;48.63;;;5.90;99.90;;;;;;5001326;28;20034;-75
2022/01/16 10:48:34;;;;;;;70.30;43.67;;;5.90;99.90;;;;;;5000631;28;20789;-75
2022/01/16 10:51:03;;;;;;;66.27;42.67;;;5.90;99.90;;;;;;4987741;28;20045;-76
2022/01/16 10:53:32;;;;;;;65.50;41.83;;;5.90;99.90;;;;;;5000124;28;20734;-75
2022/01/16 10:56:02;;;;;;;53.23;36.63;;;6.00;99.90;;;;;;5020836;28;20095;-76
2022/01/16 10:58:43;;;;;;;55.65;37.20;;;6.00;99.90;;;;;;5025502;28;20056;-76
2022/01/16 11:01:16;;;;;;;53.63;36.80;;;6.10;99.90;;;;;;5019790;28;20033;-76
2022/01/16 11:03:50;;;;;;;50.55;33.08;;;6.10;99.90;;;;;;5017691;28;20085;-75
2022/01/16 11:06:18;;;;;;;50.90;33.40;;;6.10;99.90;;;;;;5023540;28;20041;-75
2022/01/16 11:08:53;;;;;;;45.33;30.63;;;6.20;99.90;;;;;;5022290;28;20568;-76
2022/01/16 11:11:20;;;;;;;43.33;28.67;;;6.20;99.90;;;;;;5010235;28;20033;-76
2022/01/16 11:13:46;;;;;;;43.78;27.98;;;6.20;99.90;;;;;;5019291;28;20542;-75
2022/01/16 11:16:12;;;;;;;39.63;27.33;;;6.20;99.90;;;;;;5018427;28;20241;-75
2022/01/16 11:18:40;;;;;;;39.27;26.70;;;6.30;99.90;;;;;;5010885;28;20053;-75
2022/01/16 11:26:12;;;;;;;35.03;23.93;;;6.40;99.90;;;;;;5020856;28;20046;-75
2022/01/16 11:28:39;;;;;;;38.60;22.75;;;6.40;99.90;;;;;;5023970;28;20567;-76
2022/01/16 11:31:07;;;;;;;36.60;23.33;;;6.50;99.90;;;;;;5021349;28;20053;-76
2022/01/16 11:33:34;;;;;;;33.40;22.53;;;6.40;99.90;;;;;;4992666;28;20049;-76
2022/01/16 11:36:03;;;;;;;34.43;23.47;;;6.40;99.90;;;;;;5012830;28;20045;-75
2022/01/16 11:38:34;;;;;;;31.07;22.47;;;6.50;99.90;;;;;;5027667;28;20049;-75
2022/01/16 11:41:11;;;;;;;37.07;22.20;;;6.50;99.90;;;;;;5028851;28;20049;-76
2022/01/16 11:43:38;;;;;;;32.43;21.67;;;6.50;99.90;;;;;;5012559;28;20060;-75
2022/01/16 11:46:17;;;;;;;30.27;20.33;;;6.50;99.90;;;;;;5016806;28;20053;-76
2022/01/16 11:48:58;;;;;;;32.43;21.57;;;6.50;99.90;;;;;;5011320;28;20128;-75
2022/01/16 11:51:34;;;;;;;32.45;20.90;;;6.50;99.90;;;;;;5026058;28;20054;-76
2022/01/16 11:54:12;;;;;;;31.55;21.10;;;6.50;99.90;;;;;;5028250;28;20128;-76
2022/01/16 11:56:41;;;;;;;31.17;20.63;;;6.60;99.90;;;;;;5044841;28;20128;-76
2022/01/16 11:59:10;;;;;;;31.30;20.08;;;6.50;99.90;;;;;;5013039;28;20056;-75
2022/01/16 12:01:47;;;;;;;34.80;22.97;;;6.50;99.90;;;;;;5027664;28;20092;-75
2022/01/16 12:04:28;;;;;;;36.57;24.10;;;6.50;99.90;;;;;;5027873;28;20080;-75
2022/01/16 12:07:17;;;;;;;38.30;24.90;;;6.50;99.90;;;;;;5027144;28;20107;-76
2022/01/16 12:12:12;;;;;;;37.77;23.63;;;6.50;99.90;;;;;;5028768;28;20073;-75
2022/01/16 12:14:57;;;;;;;36.05;22.45;;;6.50;99.90;;;;;;4999972;28;20131;-76
2022/01/16 12:17:34;;;;;;;34.27;21.30;;;6.50;99.90;;;;;;5028739;28;20526;-75
2022/01/16 12:20:21;;;;;;;34.03;20.05;;;6.50;99.90;;;;;;5017919;28;20038;-75
2022/01/16 12:23:09;;;;;;;26.70;19.13;;;6.50;99.90;;;;;;5048349;28;20068;-76
2022/01/16 12:25:45;;;;;;;29.98;19.83;;;6.60;99.90;;;;;;5026498;28;20084;-75
2022/01/16 12:28:11;;;;;;;28.73;19.42;;;6.60;99.90;;;;;;5012885;28;20080;-75
2022/01/16 12:31:02;;;;;;;28.33;19.05;;;6.70;99.90;;;;;;5026801;28;20057;-75
2022/01/16 12:33:39;;;;;;;32.47;19.10;;;6.60;99.90;;;;;;5026162;28;20088;-75
2022/01/16 12:36:11;;;;;;;28.87;17.83;;;6.60;99.90;;;;;;5026711;28;20468;-76
2022/01/16 12:39:00;;;;;;;22.10;15.48;;;6.60;99.90;;;;;;5024092;28;20067;-76
2022/01/16 12:41:30;;;;;;;25.27;15.90;;;6.70;99.90;;;;;;5009553;28;20042;-75
2022/01/16 12:44:09;;;;;;;22.42;13.35;;;6.70;99.90;;;;;;5025794;28;20519;-75
2022/01/16 12:46:51;;;;;;;21.02;12.68;;;6.70;99.90;;;;;;5020379;28;20107;-76
2022/01/16 12:49:28;;;;;;;19.23;11.05;;;6.70;99.90;;;;;;5005348;28;20041;-75
2022/01/16 12:51:56;;;;;;;19.75;10.43;;;6.80;99.90;;;;;;5019290;28;20560;-75
2022/01/16 12:54:27;;;;;;;20.00;10.63;;;6.80;99.90;;;;;;5012168;28;20093;-75
2022/01/16 12:56:57;;;;;;;20.15;11.02;;;6.80;99.90;;;;;;5005955;28;20053;-76
2022/01/16 12:59:25;;;;;;;17.88;9.82;;;6.80;99.90;;;;;;4994457;28;20045;-75
2022/01/16 13:01:52;;;;;;;17.83;10.17;;;6.90;99.90;;;;;;4989391;28;20049;-75
2022/01/16 13:04:23;;;;;;;18.90;10.43;;;6.90;99.90;;;;;;5010740;28;20127;-75
2022/01/16 13:06:50;;;;;;;19.67;10.45;;;6.90;99.90;;;;;;5027718;28;20099;-75
2022/01/16 13:09:16;;;;;;;19.05;10.00;;;6.90;99.90;;;;;;5025549;28;20495;-75
2022/01/16 13:11:56;;;;;;;19.08;10.63;;;6.90;99.90;;;;;;5007040;28;20176;-75
2022/01/16 13:14:31;;;;;;;20.25;11.55;;;7.00;99.90;;;;;;5022131;28;20053;-75
2022/01/16 13:16:59;;;;;;;16.77;10.50;;;7.00;99.90;;;;;;5017565;28;20053;-74
2022/01/16 13:19:42;;;;;;;16.40;11.25;;;7.00;99.90;;;;;;5025798;28;20064;-75
2022/01/16 13:22:13;;;;;;;24.65;11.85;;;7.00;99.90;;;;;;5024043;28;20123;-75
2022/01/16 13:24:50;;;;;;;17.40;11.27;;;7.00;99.90;;;;;;5043271;28;20107;-75
2022/01/16 13:27:25;;;;;;;15.63;10.70;;;7.00;99.90;;;;;;5033681;28;20096;-75